Date,TemperatureHighF,TemperatureAvgF,TemperatureLowF,DewpointHighF,DewpointAvgF,DewpointLowF,HumidityHigh,HumidityAvg,HumidityLow,PressureMaxIn,PressureMinIn,WindSpeedMaxMPH,WindSpeedAvgMPH,GustSpeedMaxMPH,PrecipitationSumIn
2013-6-1,86,66,56,62,55,47,87,68,45,29.78,29.54,0,-999,0,0.00
2013-6-2,68,56,47,48,41,37,80,57,41,30.02,29.78,0,-999,0,0.00
2013-6-3,90,63,42,56,44,38,88,53,28,30.05,29.93,0,-999,0,0.00
2013-6-4,58,57,55,56,52,46,100,84,64,30.11,29.99,0,-999,0,0.00
2013-6-5,60,56,52,60,56,52,100,100,97,30.08,29.87,0,-999,0,0.00
2013-6-6,62,57,54,58,55,54,100,94,81,29.96,29.87,0,-999,0,0.00
2013-6-7,75,62,53,57,52,48,100,75,42,29.99,29.84,0,-999,0,0.00
2013-6-8,80,65,53,58,53,48,90,66,43,29.90,29.84,0,-999,0,0.00
2013-6-9,70,63,59,63,55,48,89,75,56,29.90,29.72,0,-999,0,0.00
2013-6-10,86,68,59,69,59,55,98,73,50,29.81,29.72,0,-999,0,0.00
2013-6-11,92,61,56,65,55,53,93,84,39,29.87,29.81,0,-999,0,0.00
2013-6-12,81,70,63,74,66,62,100,89,59,29.84,29.63,0,-999,0,0.00
2013-6-13,79,68,58,63,56,52,100,71,41,30.02,29.75,0,-999,0,0.00
2013-6-14,81,71,56,58,54,50,81,57,44,30.11,29.87,0,-999,0,0.00
2013-6-15,85,72,63,69,62,55,87,73,55,29.96,29.72,0,-999,0,0.00
2013-6-16,84,73,60,64,55,47,93,59,30,29.87,29.78,0,-999,0,0.00
2013-6-17,84,72,59,58,52,48,80,53,30,29.90,29.81,0,-999,0,0.00
2013-6-18,79,70,62,56,51,43,75,53,36,30.05,29.90,0,-999,0,0.00
2013-6-19,84,70,53,60,53,44,73,56,43,30.08,29.96,0,-999,0,0.00
2013-6-20,89,73,63,62,57,54,74,59,38,30.02,29.93,0,-999,0,0.00
2013-6-22,88,78,65,72,70,64,100,77,59,29.90,29.78,0,-999,0,0.00
2013-6-23,86,75,64,70,66,62,100,76,46,29.90,29.69,0,-999,0,0.00
2013-6-24,83,73,68,70,66,63,92,78,64,29.87,29.78,0,-999,0,0.00
2013-6-25,89,75,65,73,68,63,94,79,58,29.84,29.66,0,-999,0,0.00
2013-6-26,89,78,69,73,69,65,96,76,53,29.72,29.59,0,-999,0,0.00
2013-6-27,89,77,66,68,61,51,93,62,32,29.75,29.66,0,-999,0,0.00
2013-6-28,80,70,62,68,58,52,100,68,41,29.72,29.59,0,-999,0,0.00
2013-6-29,75,66,62,66,61,52,100,83,62,29.87,29.63,0,-999,0,0.00
2013-6-30,80,68,53,53,49,45,80,54,29,30.05,29.87,0,-999,0,0.00